Shakhterskiy, Russia
Current Conditions -  °F | °C
As of 6:36 AM on Sunday 26 Oct 2014 (Local Time) from PAGM Reporting Station
Broken Clouds Broken Clouds  
Wind Chill: 24°   Ceiling: 4500
Heat Index: 34°   Visibility: 9mi
Dew Point: 21°   Wind: 14mph
Humidity: 60%   Direction: 280°W
Pressure: 29.56"   Gusts: NA
Location:  64.78°N, 177.6°E
Report Text: PAGM 251836Z AUTO 28012KT 9SM BKN045 01/M06 A2956 RMK AO1
Loading
Personal Weather Stations






























Interactive Weather Map
Tropical Storm Tracking
New forecast layout! Learn more

10-Day Weather Forecast

Advertisements
Track Severe Weather on mobile